Time;durP1;ratioP1;P1;durP2;ratioP2;P2;SDS_P1;SDS_P2;PMS_P1;PMS_P2;Temp;Humidity;BMP_temperature;BMP_pressure;BME280_temperature;BME280_humidity;BME280_pressure;Samples;Min_cycle;Max_cycle;Signal;HPM_P1;HPM_P2
2024/01/09 00:02:01;;;;;;;1.10;1.10;;;;;;;-7.07;79.19;100637.44;5037138;28;20047;-61
2024/01/09 00:04:28;;;;;;;1.10;1.10;;;;;;;-7.09;79.07;100634.06;5054136;28;20167;-61
2024/01/09 00:06:57;;;;;;;1.10;1.10;;;;;;;-7.04;78.43;100632.03;5079263;28;20058;-59
2024/01/09 00:09:24;;;;;;;1.10;1.10;;;;;;;-7.22;81.10;100639.19;5076438;28;20080;-59
2024/01/09 00:11:51;;;;;;;1.10;1.10;;;;;;;-7.26;81.28;100637.75;5074457;28;20044;-58
2024/01/09 00:14:18;;;;;;;1.10;1.10;;;;;;;-7.29;82.08;100635.28;5079147;28;20161;-60
2024/01/09 00:16:45;;;;;;;1.20;1.20;;;;;;;-7.27;82.67;100645.63;5079933;28;20097;-60
2024/01/09 00:19:12;;;;;;;1.05;1.05;;;;;;;-7.43;82.02;100635.31;5080156;28;20055;-59
2024/01/09 00:21:39;;;;;;;1.10;1.10;;;;;;;-7.34;82.64;100634.75;5074926;28;20113;-60
2024/01/09 00:24:08;;;;;;;1.10;1.10;;;;;;;-7.52;82.75;100634.09;5078725;28;20131;-59
2024/01/09 00:26:41;;;;;;;1.08;1.08;;;;;;;-7.40;88.26;100635.13;5078671;28;20044;-59
2024/01/09 00:29:08;;;;;;;1.20;1.20;;;;;;;-7.32;84.29;100625.06;5074340;28;20182;-60
2024/01/09 00:31:35;;;;;;;1.10;1.10;;;;;;;-7.29;83.90;100635.28;5080586;28;20492;-60
2024/01/09 00:34:02;;;;;;;1.10;1.10;;;;;;;-7.33;82.90;100633.84;5061282;28;20068;-60
2024/01/09 00:36:29;;;;;;;1.17;1.17;;;;;;;-7.26;82.01;100632.53;5079732;28;20052;-60
2024/01/09 00:38:56;;;;;;;1.05;1.05;;;;;;;-7.23;82.10;100636.72;5077511;28;20525;-59
2024/01/09 00:41:24;;;;;;;1.10;1.10;;;;;;;-7.05;81.90;100634.75;5075833;28;20048;-60
2024/01/09 00:43:51;;;;;;;1.10;1.10;;;;;;;-7.13;81.30;100642.19;5079868;28;20043;-59
2024/01/09 00:46:18;;;;;;;1.20;1.20;;;;;;;-7.21;82.02;100635.69;5077335;28;20076;-59
2024/01/09 00:48:45;;;;;;;1.20;1.20;;;;;;;-7.23;81.32;100636.72;5081008;28;20135;-59
2024/01/09 00:51:12;;;;;;;1.15;1.15;;;;;;;-6.96;80.26;100640.22;5075371;28;20040;-60
2024/01/09 00:53:39;;;;;;;1.10;1.10;;;;;;;-7.14;81.12;100643.94;5075160;28;20044;-60
2024/01/09 00:56:07;;;;;;;1.10;1.10;;;;;;;-7.04;80.46;100641.63;5078087;28;20054;-60
2024/01/09 00:58:35;;;;;;;1.10;1.10;;;;;;;-7.01;80.10;100644.06;5059638;28;20135;-60
2024/01/09 01:01:02;;;;;;;1.10;1.10;;;;;;;-6.88;78.96;100637.13;5080220;28;20227;-59
2024/01/09 01:03:29;;;;;;;1.08;1.08;;;;;;;-6.92;78.76;100640.84;5077524;28;20318;-60
2024/01/09 01:05:56;;;;;;;1.20;1.20;;;;;;;-6.96;78.68;100644.59;5080797;28;20486;-60
2024/01/09 01:08:23;;;;;;;1.10;1.10;;;;;;;-7.03;80.38;100635.47;5072570;28;20136;-60
2024/01/09 01:10:50;;;;;;;1.10;1.10;;;;;;;-7.12;79.93;100641.25;5078248;28;20685;-60
2024/01/09 01:13:17;;;;;;;1.02;1.02;;;;;;;-7.03;79.64;100638.09;5075191;28;20052;-60
2024/01/09 01:15:46;;;;;;;1.20;1.20;;;;;;;-7.12;81.25;100639.47;5076332;28;20056;-60
2024/01/09 01:18:14;;;;;;;1.10;1.10;;;;;;;-7.11;80.71;100640.31;5073688;28;20044;-60
2024/01/09 01:20:41;;;;;;;1.10;1.10;;;;;;;-7.19;81.46;100639.03;5077932;28;20123;-60
2024/01/09 01:23:08;;;;;;;1.20;1.20;;;;;;;-7.24;82.28;100638.50;5075576;28;20044;-60
2024/01/09 01:25:36;;;;;;;1.15;1.15;;;;;;;-7.12;81.18;100641.25;5078683;28;20048;-60
2024/01/09 01:28:03;;;;;;;1.10;1.10;;;;;;;-7.11;82.93;100640.31;5062642;28;20472;-60
2024/01/09 01:30:30;;;;;;;1.10;1.10;;;;;;;-7.16;83.20;100649.28;5053342;28;21570;-60
2024/01/09 01:32:58;;;;;;;1.20;1.20;;;;;;;-7.26;83.57;100649.91;5078318;28;20168;-60
2024/01/09 01:35:26;;;;;;;1.13;1.13;;;;;;;-7.30;82.91;100641.44;5076196;28;20044;-60
2024/01/09 01:37:53;;;;;;;1.20;1.20;;;;;;;-7.28;84.12;100650.00;5082049;28;20036;-60
2024/01/09 01:40:20;;;;;;;1.20;1.20;;;;;;;-7.25;83.49;100643.78;5077140;28;20066;-60
2024/01/09 01:42:47;;;;;;;1.20;1.20;;;;;;;-7.29;83.69;100658.75;5080593;28;20036;-60
2024/01/09 01:45:15;;;;;;;1.20;1.20;;;;;;;-7.31;84.06;100650.22;5081446;28;20089;-60
2024/01/09 01:47:43;;;;;;;1.20;1.20;;;;;;;-7.40;84.34;100651.59;5077381;28;20033;-60
2024/01/09 01:50:12;;;;;;;1.20;1.20;;;;;;;-7.42;86.21;100647.41;5081928;28;20051;-60
2024/01/09 01:52:39;;;;;;;1.10;1.10;;;;;;;-7.30;87.14;100651.88;5083067;28;20461;-61
2024/01/09 01:55:06;;;;;;;1.20;1.20;;;;;;;-7.41;84.69;100654.31;5083082;28;20126;-60
2024/01/09 01:57:33;;;;;;;1.02;1.02;;;;;;;-7.29;86.50;100658.75;5081799;28;20047;-60
2024/01/09 02:00:00;;;;;;;1.10;1.10;;;;;;;-7.34;88.77;100654.75;5076584;28;20583;-60
2024/01/09 02:02:27;;;;;;;1.10;1.10;;;;;;;-7.43;87.15;100650.94;5080066;28;20047;-60
2024/01/09 02:04:54;;;;;;;1.15;1.15;;;;;;;-7.38;93.66;100654.13;5080652;28;20048;-60
2024/01/09 02:07:23;;;;;;;1.20;1.20;;;;;;;-7.57;88.26;100650.94;5079155;28;20052;-60
2024/01/09 02:09:51;;;;;;;0.95;0.95;;;;;;;-7.70;90.33;100651.66;5077416;28;20052;-60
2024/01/09 02:12:18;;;;;;;1.17;1.17;;;;;;;-7.88;89.20;100650.97;5079966;28;20574;-60
2024/01/09 02:14:45;;;;;;;1.10;1.10;;;;;;;-7.86;90.74;100648.28;5076632;28;20043;-60
2024/01/09 02:17:15;;;;;;;1.00;1.00;;;;;;;-7.94;90.48;100642.69;5077353;28;20044;-60
2024/01/09 02:19:42;;;;;;;1.17;1.17;;;;;;;-7.99;90.96;100642.09;5080673;28;20059;-61
2024/01/09 02:22:09;;;;;;;1.20;1.20;;;;;;;-7.86;91.37;100643.09;5081481;28;20079;-60
2024/01/09 02:24:37;;;;;;;1.10;1.10;;;;;;;-7.82;92.22;100642.78;5053285;28;20044;-60
2024/01/09 02:27:09;;;;;;;1.20;1.20;;;;;;;-8.00;91.51;100640.44;5074226;28;20037;-60
2024/01/09 02:29:36;;;;;;;1.10;1.10;;;;;;;-8.20;92.64;100646.78;5076009;28;20052;-60
2024/01/09 02:32:05;;;;;;;1.20;1.20;;;;;;;-8.17;93.08;100638.81;5076689;28;20129;-60
2024/01/09 02:34:32;;;;;;;1.10;1.10;;;;;;;-8.24;92.55;100633.09;5079330;28;20117;-60
2024/01/09 02:36:59;;;;;;;1.20;1.20;;;;;;;-8.49;94.61;100634.53;5074519;28;20117;-60
2024/01/09 02:39:29;;;;;;;1.20;1.20;;;;;;;-8.37;95.43;100632.13;5073210;28;20134;-60
2024/01/09 02:41:56;;;;;;;1.13;1.13;;;;;;;-8.32;96.76;100632.72;5080487;28;20060;-60
2024/01/09 02:44:23;;;;;;;1.20;1.20;;;;;;;-8.18;96.73;100632.78;5061965;28;20043;-60
2024/01/09 02:46:50;;;;;;;1.20;1.20;;;;;;;-8.33;94.34;100629.28;5076968;28;20123;-60
2024/01/09 02:49:18;;;;;;;1.05;1.05;;;;;;;-8.23;92.65;100621.78;5080040;28;20235;-61
2024/01/09 02:51:45;;;;;;;1.02;1.02;;;;;;;-8.35;92.73;100627.69;5075116;28;20154;-60
2024/01/09 02:54:12;;;;;;;1.20;1.20;;;;;;;-8.49;93.83;100618.94;5064576;28;20052;-60
2024/01/09 02:56:41;;;;;;;1.10;1.10;;;;;;;-8.38;93.57;100612.28;5061609;28;20040;-60
2024/01/09 02:59:08;;;;;;;1.10;1.10;;;;;;;-8.13;92.31;100617.75;5055447;28;20047;-60
2024/01/09 03:01:35;;;;;;;1.10;1.10;;;;;;;-8.29;91.95;100614.31;5053625;28;20418;-60
2024/01/09 03:04:02;;;;;;;1.20;1.20;;;;;;;-8.13;95.27;100611.69;5070307;28;20139;-60
2024/01/09 03:06:30;;;;;;;1.20;1.20;;;;;;;-7.67;100.00;100615.00;5066647;28;20482;-60
2024/01/09 03:08:58;;;;;;;1.13;1.13;;;;;;;-7.86;96.89;100617.06;5065103;28;20056;-60
2024/01/09 03:11:25;;;;;;;1.05;1.05;;;;;;;-8.12;94.31;100615.97;5070575;28;20192;-60
2024/01/09 03:13:52;;;;;;;1.10;1.10;;;;;;;-8.51;93.84;100620.81;5069136;28;20045;-60
2024/01/09 03:16:19;;;;;;;1.20;1.20;;;;;;;-8.41;93.87;100620.25;5068026;28;20159;-60
2024/01/09 03:18:46;;;;;;;1.20;1.20;;;;;;;-8.02;100.00;100612.72;5067265;28;20036;-60
2024/01/09 03:21:13;;;;;;;1.10;1.10;;;;;;;-8.24;94.59;100612.28;5072746;28;20155;-60
2024/01/09 03:23:41;;;;;;;1.10;1.10;;;;;;;-8.23;94.40;100607.97;5074598;28;20108;-60
2024/01/09 03:26:08;;;;;;;1.20;1.20;;;;;;;-7.83;100.00;100611.66;5072930;28;20095;-60
2024/01/09 03:28:37;;;;;;;1.20;1.20;;;;;;;-8.06;96.86;100610.41;5069664;28;20048;-60
2024/01/09 03:31:04;;;;;;;1.10;1.10;;;;;;;-8.04;97.84;100609.41;5049910;28;20421;-60
2024/01/09 03:33:31;;;;;;;1.10;1.10;;;;;;;-8.09;99.21;100607.97;5077658;28;20046;-60
2024/01/09 03:35:58;;;;;;;1.10;1.10;;;;;;;-8.20;97.66;100605.19;5075747;28;20040;-60
2024/01/09 03:38:25;;;;;;;1.10;1.10;;;;;;;-8.42;98.01;100603.00;5074098;28;20097;-60
2024/01/09 03:40:54;;;;;;;1.20;1.20;;;;;;;-8.34;98.77;100603.34;5076223;28;20094;-60
2024/01/09 03:43:21;;;;;;;1.02;1.02;;;;;;;-8.27;98.57;100604.69;5071869;28;20495;-60
2024/01/09 03:45:48;;;;;;;1.20;1.20;;;;;;;-8.21;98.14;100606.09;5073084;28;20052;-61
2024/01/09 03:48:15;;;;;;;1.20;1.20;;;;;;;-8.26;97.91;100599.41;5080226;28;20126;-61
2024/01/09 03:50:42;;;;;;;1.00;1.00;;;;;;;-8.35;95.55;100604.28;5071164;28;20463;-60
2024/01/09 03:53:09;;;;;;;1.08;1.08;;;;;;;-8.64;95.88;100604.19;5060905;28;20484;-61
2024/01/09 03:55:36;;;;;;;1.20;1.20;;;;;;;-8.96;99.50;100608.56;5076335;28;20050;-60
2024/01/09 03:58:04;;;;;;;1.13;1.13;;;;;;;-8.93;100.00;100609.25;5073258;28;20056;-60
2024/01/09 04:00:31;;;;;;;1.20;1.20;;;;;;;-8.81;100.00;100606.88;5077079;28;20055;-60
2024/01/09 04:02:58;;;;;;;1.10;1.10;;;;;;;-8.75;98.56;100601.38;5049974;28;20045;-60
2024/01/09 04:05:25;;;;;;;1.17;1.17;;;;;;;-8.69;98.79;100595.81;5077007;28;20141;-60
2024/01/09 04:07:52;;;;;;;1.20;1.20;;;;;;;-8.74;97.81;100608.22;5080112;28;20043;-60
2024/01/09 04:10:19;;;;;;;1.10;1.10;;;;;;;-8.77;97.79;100603.22;5077287;28;20549;-60
2024/01/09 04:12:46;;;;;;;1.20;1.20;;;;;;;-8.79;98.13;100610.25;5080463;28;20121;-60
2024/01/09 04:15:15;;;;;;;1.20;1.20;;;;;;;-8.51;97.87;100609.53;5075453;28;20571;-60
2024/01/09 04:17:42;;;;;;;1.20;1.20;;;;;;;-8.40;96.39;100607.19;5076571;28;20059;-60
2024/01/09 04:20:12;;;;;;;1.10;1.10;;;;;;;-8.34;97.06;100606.78;5080108;28;20167;-60
2024/01/09 04:22:39;;;;;;;1.20;1.20;;;;;;;-8.05;100.00;100607.72;5075869;28;20503;-60
2024/01/09 04:25:06;;;;;;;1.20;1.20;;;;;;;-7.99;93.29;100621.28;5072320;28;20318;-60
2024/01/09 04:27:33;;;;;;;1.20;1.20;;;;;;;-7.87;89.56;100608.38;5076225;28;20076;-60
2024/01/09 04:30:00;;;;;;;1.20;1.20;;;;;;;-7.82;87.55;100616.75;5078296;28;20046;-60
2024/01/09 04:32:29;;;;;;;1.20;1.20;;;;;;;-7.75;86.00;100603.41;5079605;28;20268;-60
2024/01/09 04:34:57;;;;;;;1.20;1.20;;;;;;;-7.70;83.92;100612.59;5078535;28;20055;-60
2024/01/09 04:37:24;;;;;;;1.13;1.13;;;;;;;-7.75;85.65;100614.66;5075107;28;20058;-60
2024/01/09 04:39:51;;;;;;;1.20;1.20;;;;;;;-7.68;83.93;100615.13;5067918;28;20070;-60
2024/01/09 04:42:18;;;;;;;1.10;1.10;;;;;;;-7.55;83.25;100620.44;5076450;28;20761;-60
2024/01/09 04:44:45;;;;;;;1.17;1.17;;;;;;;-7.55;81.78;100612.63;5079470;28;20044;-60
2024/01/09 04:47:15;;;;;;;1.20;1.20;;;;;;;-7.52;81.07;100615.03;5079318;28;20113;-60
2024/01/09 04:49:44;;;;;;;1.17;1.17;;;;;;;-7.51;80.87;100614.09;5078625;28;20506;-60
2024/01/09 04:52:11;;;;;;;1.20;1.20;;;;;;;-7.62;80.48;100622.56;5079787;28;20040;-60
2024/01/09 04:54:38;;;;;;;1.20;1.20;;;;;;;-7.53;80.16;100623.78;5078662;28;20163;-60
2024/01/09 04:57:05;;;;;;;1.10;1.10;;;;;;;-7.53;79.58;100629.00;5075485;28;20040;-60
2024/01/09 04:59:32;;;;;;;1.10;1.10;;;;;;;-7.50;79.77;100619.22;5076447;28;20048;-60
2024/01/09 05:02:01;;;;;;;1.20;1.20;;;;;;;-7.51;79.63;100627.09;5080067;28;20410;-60
2024/01/09 05:04:29;;;;;;;1.17;1.17;;;;;;;-7.36;78.44;100623.59;5075293;28;20048;-60
2024/01/09 05:06:58;;;;;;;1.13;1.13;;;;;;;-7.45;78.63;100622.38;5071442;28;20337;-60
2024/01/09 05:09:25;;;;;;;1.20;1.20;;;;;;;-7.45;81.91;100616.34;5060219;28;20055;-60
2024/01/09 05:11:53;;;;;;;1.20;1.20;;;;;;;-7.44;81.59;100611.03;5084405;28;20032;-59
2024/01/09 05:14:20;;;;;;;1.10;1.10;;;;;;;-7.51;82.09;100612.34;5082747;28;20135;-61
2024/01/09 05:16:47;;;;;;;1.10;1.10;;;;;;;-7.60;82.49;100608.50;5080938;28;20047;-60
2024/01/09 05:19:14;;;;;;;1.10;1.10;;;;;;;-7.29;79.65;100611.84;5081362;28;20433;-60
2024/01/09 05:21:41;;;;;;;1.10;1.10;;;;;;;-7.36;78.90;100610.56;5058690;28;20135;-60
2024/01/09 05:24:09;;;;;;;1.20;1.20;;;;;;;-7.41;83.56;100600.44;5078749;28;20129;-60
2024/01/09 05:26:36;;;;;;;1.15;1.15;;;;;;;-7.33;82.30;100607.78;5076247;28;20139;-60
2024/01/09 05:29:03;;;;;;;1.13;1.13;;;;;;;-7.28;88.32;100608.34;5081099;28;20064;-60
2024/01/09 05:31:30;;;;;;;1.20;1.20;;;;;;;-7.60;80.88;100597.28;5081778;28;20064;-60
2024/01/09 05:33:58;;;;;;;1.10;1.10;;;;;;;-7.35;87.60;100596.59;5079740;28;20048;-60
2024/01/09 05:36:24;;;;;;;1.05;1.05;;;;;;;-7.08;88.86;100599.28;5074706;28;20150;-60
2024/01/09 05:38:52;;;;;;;1.10;1.10;;;;;;;-7.20;83.64;100606.09;5081714;28;20044;-60
2024/01/09 05:41:21;;;;;;;1.10;1.10;;;;;;;-7.53;81.97;100597.75;5083499;28;20264;-60
2024/01/09 05:43:49;;;;;;;1.20;1.20;;;;;;;-7.41;85.41;100592.63;5081254;28;20139;-60
2024/01/09 05:46:17;;;;;;;1.08;1.08;;;;;;;-7.43;82.32;100588.44;5081280;28;20913;-61
2024/01/09 05:48:44;;;;;;;1.10;1.10;;;;;;;-7.47;82.45;100587.78;5063601;28;20397;-61
2024/01/09 05:51:11;;;;;;;1.10;1.10;;;;;;;-7.54;83.17;100583.84;5082886;28;20047;-60
2024/01/09 05:53:38;;;;;;;1.00;1.00;;;;;;;-7.68;81.06;100584.72;5081531;28;20343;-60
2024/01/09 05:56:06;;;;;;;1.10;1.10;;;;;;;-7.62;81.05;100584.31;5079928;28;20032;-61
2024/01/09 05:58:35;;;;;;;1.20;1.20;;;;;;;-7.83;81.16;100588.25;5080625;28;20055;-60
2024/01/09 06:01:02;;;;;;;1.20;1.20;;;;;;;-7.46;86.82;100597.28;5078345;28;20146;-60
2024/01/09 06:03:29;;;;;;;1.20;1.20;;;;;;;-7.63;82.87;100598.28;5073894;28;20109;-61
2024/01/09 06:05:56;;;;;;;1.10;1.10;;;;;;;-7.42;86.97;100605.72;5079651;28;20040;-60
2024/01/09 06:08:24;;;;;;;1.20;1.20;;;;;;;-7.71;82.39;100595.31;5071036;28;20768;-60
2024/01/09 06:10:52;;;;;;;1.10;1.10;;;;;;;-7.83;80.93;100603.84;5074806;28;20050;-60
2024/01/09 06:13:19;;;;;;;1.15;1.15;;;;;;;-7.58;83.76;100594.59;5083541;28;20045;-60
2024/01/09 06:15:47;;;;;;;1.20;1.20;;;;;;;-7.52;82.02;100607.22;5077941;28;20046;-60
2024/01/09 06:18:14;;;;;;;1.20;1.20;;;;;;;-7.67;84.62;100606.38;5079942;28;20410;-61
2024/01/09 06:20:41;;;;;;;1.10;1.10;;;;;;;-7.66;80.31;100603.69;5064887;28;20044;-60
2024/01/09 06:23:09;;;;;;;1.20;1.20;;;;;;;-7.80;82.33;100606.28;5066973;28;20150;-60
2024/01/09 06:25:36;;;;;;;1.20;1.20;;;;;;;-7.82;82.83;100602.91;5077660;28;20049;-60
2024/01/09 06:28:04;;;;;;;1.20;1.20;;;;;;;-7.79;82.38;100597.53;5077012;28;20131;-60
2024/01/09 06:30:34;;;;;;;1.20;1.20;;;;;;;-7.88;80.54;100591.13;5080502;28;20051;-60
2024/01/09 06:33:02;;;;;;;1.20;1.20;;;;;;;-8.04;82.89;100588.59;5063831;28;20056;-60
2024/01/09 06:35:29;;;;;;;1.10;1.10;;;;;;;-7.72;86.17;100593.63;5080398;28;20474;-60
2024/01/09 06:37:56;;;;;;;1.10;1.10;;;;;;;-7.78;83.71;100588.81;5081251;28;20153;-60
2024/01/09 06:40:24;;;;;;;1.10;1.10;;;;;;;-7.92;83.00;100584.41;5076194;28;20135;-60
2024/01/09 06:42:51;;;;;;;1.10;1.10;;;;;;;-7.92;83.78;100586.19;5079404;28;20095;-60
2024/01/09 06:45:18;;;;;;;1.10;1.10;;;;;;;-8.02;85.55;100599.72;5082300;28;20454;-61
2024/01/09 06:47:46;;;;;;;1.13;1.13;;;;;;;-8.24;83.87;100594.09;5071741;28;20505;-61
2024/01/09 06:50:15;;;;;;;1.20;1.20;;;;;;;-8.24;88.55;100591.50;5076575;28;20495;-60
2024/01/09 06:52:42;;;;;;;1.10;1.10;;;;;;;-8.35;87.21;100594.72;5080316;28;20510;-60
2024/01/09 06:55:10;;;;;;;1.10;1.10;;;;;;;-8.27;88.94;100595.09;5077409;28;20052;-60
2024/01/09 06:57:37;;;;;;;1.10;1.10;;;;;;;-8.53;88.11;100596.66;5079730;28;20143;-60
2024/01/09 07:00:05;;;;;;;1.10;1.10;;;;;;;-8.46;85.86;100604.94;5080354;28;20040;-59
2024/01/09 07:02:32;;;;;;;1.20;1.20;;;;;;;-8.36;86.08;100600.84;5079904;28;20048;-60
2024/01/09 07:04:59;;;;;;;1.10;1.10;;;;;;;-8.39;85.89;100601.00;5041421;28;20683;-60
2024/01/09 07:07:28;;;;;;;1.10;1.10;;;;;;;-8.56;86.05;100607.22;5072152;28;20105;-60
2024/01/09 07:09:56;;;;;;;1.10;1.10;;;;;;;-8.54;86.32;100610.53;5057080;28;20054;-59
2024/01/09 07:12:24;;;;;;;1.20;1.20;;;;;;;-8.34;87.35;100617.19;5064777;28;20049;-60
2024/01/09 07:14:51;;;;;;;1.10;1.10;;;;;;;-8.45;86.27;100614.41;5057319;28;20392;-60
2024/01/09 07:17:18;;;;;;;1.20;1.20;;;;;;;-8.45;83.42;100618.78;5049889;28;20891;-60
2024/01/09 07:19:45;;;;;;;1.20;1.20;;;;;;;-8.52;84.26;100629.50;5058427;28;20091;-59
2024/01/09 07:22:12;;;;;;;1.10;1.10;;;;;;;-8.50;84.04;100624.22;5056023;28;20127;-59
2024/01/09 07:24:40;;;;;;;1.20;1.20;;;;;;;-8.20;90.31;100621.63;5052628;28;20442;-60
2024/01/09 07:27:07;;;;;;;1.20;1.20;;;;;;;-8.33;84.04;100628.44;5058302;28;20437;-60
2024/01/09 07:29:34;;;;;;;1.20;1.20;;;;;;;-8.35;85.01;100614.69;5056941;28;20131;-60
2024/01/09 07:32:02;;;;;;;1.13;1.13;;;;;;;-8.57;85.29;100615.94;5052838;28;20052;-60
2024/01/09 07:34:30;;;;;;;1.10;1.10;;;;;;;-8.40;83.84;100619.34;5059488;28;20048;-60
2024/01/09 07:36:57;;;;;;;1.10;1.10;;;;;;;-8.31;85.20;100609.22;5057440;28;20151;-59
2024/01/09 07:39:24;;;;;;;1.20;1.20;;;;;;;-8.33;85.28;100618.06;5052703;28;20049;-60
2024/01/09 07:41:53;;;;;;;1.10;1.10;;;;;;;-8.30;87.91;100630.88;5059934;28;20052;-59
2024/01/09 07:44:21;;;;;;;1.10;1.10;;;;;;;-8.13;86.18;100629.91;5051392;28;20106;-60
2024/01/09 07:46:48;;;;;;;1.00;1.00;;;;;;;-8.14;83.17;100634.25;5056670;28;20155;-59
2024/01/09 07:49:15;;;;;;;1.20;1.20;;;;;;;-8.26;83.50;100638.41;5053268;28;20060;-59
2024/01/09 07:51:42;;;;;;;1.20;1.20;;;;;;;-8.38;85.64;100635.69;5051468;28;20056;-59
2024/01/09 07:54:10;;;;;;;1.20;1.20;;;;;;;-8.35;84.62;100640.69;5052886;28;20040;-59
2024/01/09 07:56:37;;;;;;;1.20;1.20;;;;;;;-8.37;84.89;100637.34;5053560;28;20048;-59
2024/01/09 07:59:06;;;;;;;1.20;1.20;;;;;;;-8.23;83.14;100642.59;5051113;28;20044;-59
2024/01/09 08:01:34;;;;;;;1.10;1.10;;;;;;;-8.25;84.27;100632.28;5057110;28;20055;-59
2024/01/09 08:04:04;;;;;;;1.20;1.20;;;;;;;-8.31;83.62;100642.19;5054300;28;20036;-60
2024/01/09 08:06:31;;;;;;;1.20;1.20;;;;;;;-8.18;86.05;100640.56;5055527;28;20040;-58
2024/01/09 08:08:58;;;;;;;1.20;1.20;;;;;;;-8.18;85.06;100639.75;5060715;28;20345;-59
2024/01/09 08:11:28;;;;;;;1.02;1.02;;;;;;;-8.22;85.30;100654.69;5060341;28;20596;-60
2024/01/09 08:13:57;;;;;;;1.20;1.20;;;;;;;-8.31;85.69;100650.84;5078882;28;20110;-60
2024/01/09 08:16:27;;;;;;;1.20;1.20;;;;;;;-8.23;86.11;100649.59;5058246;28;20048;-60
2024/01/09 08:18:54;;;;;;;1.20;1.20;;;;;;;-8.17;85.18;100654.41;5075837;28;20044;-60
2024/01/09 08:21:21;;;;;;;1.20;1.20;;;;;;;-8.10;85.00;100640.97;5078520;28;20129;-60
2024/01/09 08:23:48;;;;;;;1.20;1.20;;;;;;;-8.05;86.33;100644.13;5073542;28;20139;-60
2024/01/09 08:26:16;;;;;;;1.20;1.20;;;;;;;-7.94;86.30;100660.91;5060172;28;20107;-59
2024/01/09 08:28:43;;;;;;;1.20;1.20;;;;;;;-7.95;86.21;100651.44;5075550;28;20130;-60
2024/01/09 08:31:10;;;;;;;1.20;1.20;;;;;;;-7.71;84.48;100655.19;5078347;28;20273;-60
2024/01/09 08:33:38;;;;;;;1.20;1.20;;;;;;;-7.93;85.47;100637.41;5076721;28;20043;-60
2024/01/09 08:36:06;;;;;;;1.30;1.30;;;;;;;-7.68;83.29;100647.19;5073534;28;20051;-60
2024/01/09 08:38:33;;;;;;;1.15;1.15;;;;;;;-7.46;86.67;100645.91;5076121;28;20075;-60
2024/01/09 08:41:02;;;;;;;1.20;1.20;;;;;;;-7.17;80.89;100646.75;5076768;28;20572;-60
2024/01/09 08:43:30;;;;;;;;;;;;;;;-6.82;78.91;100654.16;5061908;28;20053;-60
2024/01/09 08:45:57;;;;;;;1.20;1.20;;;;;;;-6.76;78.04;100651.19;5079726;28;19947;-60
2024/01/09 08:48:24;;;;;;;1.10;1.10;;;;;;;-6.87;76.60;100653.59;5079238;28;20044;-60
2024/01/09 08:50:53;;;;;;;1.20;1.20;;;;;;;-7.05;78.13;100650.38;5080993;28;20075;-60
2024/01/09 08:53:20;;;;;;;1.05;1.05;;;;;;;-6.76;78.29;100666.81;5081441;28;20048;-60
2024/01/09 08:55:47;;;;;;;1.10;1.10;;;;;;;-6.46;75.71;100663.19;5062552;28;20147;-64
2024/01/09 08:58:14;;;;;;;1.20;1.20;;;;;;;-6.72;77.39;100658.69;5078836;28;20043;-60
2024/01/09 09:00:41;;;;;;;1.30;1.30;;;;;;;-6.44;76.58;100656.97;5082861;28;20036;-60
2024/01/09 09:03:08;;;;;;;1.10;1.10;;;;;;;-6.07;74.12;100657.16;5082937;28;20063;-60
2024/01/09 09:05:36;;;;;;;1.10;1.10;;;;;;;-4.82;69.64;100655.59;5080759;28;20669;-60
2024/01/09 09:08:05;;;;;;;1.20;1.20;;;;;;;-4.77;67.05;100655.22;5078697;28;20072;-60
2024/01/09 09:10:32;;;;;;;1.00;1.00;;;;;;;-3.93;64.13;100656.13;5040553;28;20094;-60
2024/01/09 09:13:00;;;;;;;1.10;1.10;;;;;;;-3.66;62.11;100650.59;5033620;28;20054;-60
2024/01/09 09:15:27;;;;;;;1.00;1.00;;;;;;;-2.99;61.31;100652.44;5039830;28;20092;-60
2024/01/09 09:17:55;;;;;;;1.10;1.10;;;;;;;-3.48;60.85;100658.84;5042715;28;20078;-60
2024/01/09 09:20:23;;;;;;;1.20;1.20;;;;;;;-2.86;61.00;100655.78;5053525;28;20045;-60
2024/01/09 09:22:50;;;;;;;1.10;1.10;;;;;;;-3.11;60.90;100661.28;5040430;28;20480;-58
2024/01/09 09:25:18;;;;;;;1.10;1.10;;;;;;;-3.47;61.13;100661.38;5035714;28;20159;-59
2024/01/09 09:27:45;;;;;;;1.00;1.00;;;;;;;-3.56;62.83;100661.22;5035728;28;20041;-58
2024/01/09 09:30:13;;;;;;;1.00;1.00;;;;;;;-3.21;59.96;100665.56;5037055;28;20096;-59
2024/01/09 09:32:40;;;;;;;0.93;0.93;;;;;;;-2.57;59.38;100664.91;5041874;28;20095;-60
2024/01/09 09:35:08;;;;;;;0.90;0.90;;;;;;;-2.26;58.12;100663.28;5035670;28;20053;-60
2024/01/09 09:37:35;;;;;;;1.05;1.05;;;;;;;-2.50;59.98;100660.84;5036987;28;20040;-60
2024/01/09 09:40:03;;;;;;;0.82;0.82;;;;;;;-2.65;56.53;100662.91;5042369;28;20130;-60
2024/01/09 09:42:35;;;;;;;0.90;0.90;;;;;;;-2.15;57.10;100665.84;5040271;28;20067;-61
2024/01/09 09:45:02;;;;;;;1.02;1.02;;;;;;;-2.09;55.47;100660.13;5041205;28;20053;-60
2024/01/09 09:47:31;;;;;;;1.02;1.02;;;;;;;-2.55;55.43;100668.25;5041679;28;20473;-58
2024/01/09 09:49:58;;;;;;;1.08;1.08;;;;;;;-2.04;54.94;100657.94;5042767;28;20098;-60
2024/01/09 09:52:26;;;;;;;1.00;1.00;;;;;;;-2.01;53.46;100665.56;5041809;28;20068;-58
2024/01/09 09:54:53;;;;;;;0.88;0.88;;;;;;;-3.05;57.38;100652.91;5041309;28;20071;-61
2024/01/09 09:57:20;;;;;;;1.02;1.02;;;;;;;-1.99;59.62;100660.19;5039493;28;20045;-59
2024/01/09 09:59:49;;;;;;;1.00;1.00;;;;;;;-1.87;53.32;100653.94;5038362;28;20471;-59
2024/01/09 10:02:19;;;;;;;1.00;1.00;;;;;;;-1.49;53.51;100656.94;5042816;28;20057;-59
2024/01/09 10:04:47;;;;;;;1.10;1.10;;;;;;;-1.70;52.59;100654.31;5037252;28;20090;-59
2024/01/09 10:07:16;;;;;;;1.00;1.00;;;;;;;-2.09;55.35;100654.88;5037919;28;20045;-59
2024/01/09 10:09:46;;;;;;;0.90;0.90;;;;;;;-0.98;52.51;100650.81;5060604;28;20052;-59
2024/01/09 10:12:13;;;;;;;0.90;0.90;;;;;;;-1.55;52.62;100642.50;5078994;28;20047;-59
2024/01/09 10:14:59;;;;;;;1.15;1.00;;;;;;;-1.03;52.64;100643.31;5079914;28;20595;-59
2024/01/09 10:17:28;;;;;;;0.90;0.90;;;;;;;-0.97;52.75;100650.69;5079044;28;20047;-59
2024/01/09 10:19:55;;;;;;;0.77;0.77;;;;;;;-1.88;52.46;100643.53;5081155;28;20036;-59
2024/01/09 10:22:22;;;;;;;0.80;0.80;;;;;;;-1.63;53.49;100640.53;5077729;28;20146;-59
2024/01/09 10:24:49;;;;;;;0.88;0.88;;;;;;;-1.31;52.66;100639.59;5072542;28;20201;-59
2024/01/09 10:27:18;;;;;;;0.90;0.90;;;;;;;-0.67;51.19;100644.53;5055702;28;20121;-59
2024/01/09 10:29:45;;;;;;;0.90;0.90;;;;;;;-1.34;52.62;100640.69;5078593;28;20051;-59
2024/01/09 10:32:14;;;;;;;0.95;0.95;;;;;;;-1.28;52.66;100639.31;5079269;28;20048;-59
2024/01/09 10:34:43;;;;;;;1.00;1.00;;;;;;;-1.50;53.31;100628.97;5080102;28;20506;-59
2024/01/09 10:37:09;;;;;;;1.00;1.00;;;;;;;-0.74;51.39;100627.63;5059868;28;20127;-60
2024/01/09 10:39:36;;;;;;;1.00;1.00;;;;;;;-1.49;51.04;100620.13;5076442;28;20054;-59
2024/01/09 10:42:05;;;;;;;1.00;1.00;;;;;;;-2.01;51.69;100618.28;5077850;28;20070;-59
2024/01/09 10:44:32;;;;;;;0.90;0.90;;;;;;;-1.31;50.72;100616.75;5081009;28;20048;-59
2024/01/09 10:47:00;;;;;;;1.00;1.00;;;;;;;-1.43;51.82;100609.91;5076886;28;20067;-59
2024/01/09 10:49:29;;;;;;;0.90;0.90;;;;;;;-0.90;50.03;100612.34;5073156;28;20055;-59
2024/01/09 10:51:57;;;;;;;0.77;0.77;;;;;;;-1.08;49.26;100614.75;5077871;28;20546;-59
2024/01/09 10:54:24;;;;;;;0.80;0.80;;;;;;;-0.96;49.54;100606.78;5076757;28;20051;-59
2024/01/09 10:56:52;;;;;;;0.90;0.90;;;;;;;-0.52;48.38;100602.84;5059267;28;20056;-59
2024/01/09 10:59:19;;;;;;;0.90;0.90;;;;;;;-0.61;49.58;100598.38;5079521;28;20050;-59
2024/01/09 11:01:46;;;;;;;0.85;0.85;;;;;;;-0.77;49.48;100596.28;5079009;28;20364;-59
2024/01/09 11:04:14;;;;;;;0.80;0.80;;;;;;;-0.73;50.03;100592.41;5078690;28;20413;-59
2024/01/09 11:06:42;;;;;;;0.88;0.88;;;;;;;-0.78;49.18;100589.34;5071563;28;20465;-59
2024/01/09 11:09:11;;;;;;;0.80;0.80;;;;;;;-0.74;50.27;100590.75;5080773;28;20076;-59
2024/01/09 11:11:38;;;;;;;0.90;0.90;;;;;;;-0.90;48.88;100590.44;5079341;28;20387;-59
2024/01/09 11:14:06;;;;;;;0.80;0.80;;;;;;;-0.78;49.41;100578.81;5078038;28;20036;-60
2024/01/09 11:16:33;;;;;;;0.90;0.90;;;;;;;-0.67;49.35;100581.34;5075931;28;20048;-59
2024/01/09 11:19:01;;;;;;;0.90;0.90;;;;;;;-1.76;50.22;100582.88;5079941;28;20056;-59
2024/01/09 11:21:28;;;;;;;0.98;0.98;;;;;;;-1.70;49.67;100581.53;5078691;28;20098;-60
2024/01/09 11:24:00;;;;;;;0.80;0.80;;;;;;;-1.25;50.58;100588.25;5076564;28;20032;-59
2024/01/09 11:26:32;;;;;;;0.90;0.90;;;;;;;-1.52;50.48;100581.78;5072617;28;20105;-58